createdAt,value
2018-06-07T00:00:13.351Z,101396.33
2018-06-07T00:02:41.975Z,101396.98
2018-06-07T00:05:10.836Z,101403.76
2018-06-07T00:07:39.366Z,101398.04
2018-06-07T00:10:08.082Z,101398.23
2018-06-07T00:12:36.581Z,101393.61
2018-06-07T00:15:05.078Z,101387.84
2018-06-07T00:17:33.535Z,101400.17
2018-06-07T00:20:02.168Z,101393.22
2018-06-07T00:22:30.865Z,101384.04
2018-06-07T00:24:59.319Z,101384.15
2018-06-07T00:27:27.821Z,101392.70
2018-06-07T00:29:56.490Z,101392.66
2018-06-07T00:32:24.998Z,101386.01
2018-06-07T00:34:53.463Z,101386.11
2018-06-07T00:37:22.005Z,101393.88
2018-06-07T00:39:50.632Z,101393.59
2018-06-07T00:42:19.343Z,101392.97
2018-06-07T00:44:47.996Z,101392.32
2018-06-07T00:47:16.707Z,101388.56
2018-06-07T00:49:45.174Z,101385.34
2018-06-07T00:52:13.871Z,101380.48
2018-06-07T00:54:42.343Z,101378.18
2018-06-07T00:57:11.370Z,101379.37
2018-06-07T00:59:39.810Z,101372.46
2018-06-07T01:02:08.871Z,101381.30
2018-06-07T01:04:37.472Z,101379.86
2018-06-07T01:07:05.996Z,101374.53
2018-06-07T01:09:34.443Z,101374.44
2018-06-07T01:12:04.367Z,101377.36
2018-06-07T01:15:36.086Z,101372.85
2018-06-07T01:18:04.614Z,101369.86
2018-06-07T01:20:33.099Z,101360.10
2018-06-07T01:23:01.775Z,101360.00
2018-06-07T01:25:30.620Z,101361.94
2018-06-07T01:27:59.158Z,101367.98
2018-06-07T01:30:33.946Z,101363.12
2018-06-07T01:33:33.921Z,101361.31
2018-06-07T01:36:03.035Z,101356.70
2018-06-07T01:38:42.873Z,101358.09
2018-06-07T01:41:11.722Z,101357.89
2018-06-07T01:43:40.212Z,101349.88
2018-06-07T01:46:08.736Z,101344.27
2018-06-07T01:48:37.384Z,101337.80
2018-06-07T01:51:05.980Z,101337.20
2018-06-07T01:53:34.933Z,101340.16
2018-06-07T01:56:03.471Z,101336.64
2018-06-07T01:58:32.187Z,101336.06
2018-06-07T02:01:00.838Z,101324.77
2018-06-07T02:03:29.298Z,101323.45
2018-06-07T02:05:57.822Z,101323.77
2018-06-07T02:08:26.442Z,101329.55
2018-06-07T02:10:55.171Z,101325.20
2018-06-07T02:13:23.805Z,101324.94
2018-06-07T02:15:52.341Z,101321.01
2018-06-07T02:18:20.846Z,101324.59
2018-06-07T02:20:49.587Z,101333.30
2018-06-07T02:23:18.151Z,101333.51
2018-06-07T02:25:46.871Z,101330.72
2018-06-07T02:28:15.355Z,101330.37
2018-06-07T02:30:44.044Z,101327.49
2018-06-07T02:33:12.550Z,101326.70
2018-06-07T02:35:41.206Z,101324.73
2018-06-07T02:38:09.775Z,101332.19
2018-06-07T02:40:38.382Z,101333.59
2018-06-07T02:43:06.860Z,101333.02
2018-06-07T02:45:35.530Z,101339.38
2018-06-07T02:48:04.070Z,101336.13
2018-06-07T02:50:32.694Z,101336.84
2018-06-07T02:53:01.160Z,101340.66
2018-06-07T02:55:29.862Z,101344.80
2018-06-07T02:57:58.353Z,101350.11
2018-06-07T03:00:27.032Z,101356.66
2018-06-07T03:02:55.759Z,101354.51
2018-06-07T03:05:24.397Z,101347.27
2018-06-07T03:07:53.070Z,101349.73
2018-06-07T03:10:21.767Z,101353.42
2018-06-07T03:12:50.235Z,101350.38
2018-06-07T03:15:18.782Z,101354.24
2018-06-07T03:17:47.401Z,101359.33
2018-06-07T03:20:15.918Z,101356.81
2018-06-07T03:22:44.395Z,101362.45
2018-06-07T03:25:13.310Z,101362.17
2018-06-07T03:27:41.768Z,101365.09
2018-06-07T03:30:10.387Z,101364.63
2018-06-07T03:32:39.088Z,101364.59
2018-06-07T03:35:07.590Z,101369.59
2018-06-07T03:37:36.023Z,101365.78
2018-06-07T03:40:04.569Z,101370.22
2018-06-07T03:42:33.031Z,101372.25
2018-06-07T03:45:01.474Z,101375.38
2018-06-07T03:47:30.008Z,101385.48
2018-06-07T03:49:58.473Z,101381.77
2018-06-07T03:52:26.977Z,101384.76
2018-06-07T03:54:55.458Z,101386.59
2018-06-07T03:57:24.036Z,101384.73
2018-06-07T03:59:52.597Z,101391.62
2018-06-07T04:05:16.825Z,101385.75
2018-06-07T04:07:45.280Z,101386.86
2018-06-07T04:10:13.795Z,101387.13
2018-06-07T04:12:42.258Z,101381.90
2018-06-07T04:15:10.979Z,101389.73
2018-06-07T04:17:39.854Z,101388.30
2018-06-07T04:20:08.762Z,101382.27
2018-06-07T04:22:37.318Z,101382.48
2018-06-07T04:25:05.828Z,101388.53
2018-06-07T04:27:34.342Z,101391.23
2018-06-07T04:30:02.864Z,101389.37
2018-06-07T04:32:31.422Z,101394.28
2018-06-07T04:34:59.848Z,101389.66
2018-06-07T04:37:28.678Z,101395.25
2018-06-07T04:39:57.147Z,101391.63
2018-06-07T04:42:25.681Z,101397.27
2018-06-07T04:44:54.204Z,101401.24
2018-06-07T04:47:22.987Z,101398.18
2018-06-07T04:49:51.447Z,101397.56
2018-06-07T04:52:20.212Z,101400.06
2018-06-07T04:54:48.866Z,101397.38
2018-06-07T04:57:17.587Z,101401.80
2018-06-07T04:59:46.099Z,101405.34
2018-06-07T05:02:14.648Z,101403.47
2018-06-07T05:04:43.202Z,101405.58
2018-06-07T05:07:11.944Z,101407.41
2018-06-07T05:09:40.568Z,101406.09
2018-06-07T05:12:09.063Z,101400.45
2018-06-07T05:14:37.772Z,101407.75
2018-06-07T05:17:06.473Z,101406.42
2018-06-07T05:19:34.994Z,101406.04
2018-06-07T05:22:03.817Z,101411.79
2018-06-07T05:24:33.275Z,101411.31
2018-06-07T05:27:02.963Z,101417.64
2018-06-07T05:29:31.917Z,101413.56
2018-06-07T05:32:01.279Z,101409.59
2018-06-07T05:34:30.583Z,101408.98
2018-06-07T05:36:59.397Z,101409.87
2018-06-07T05:39:28.082Z,101403.44
2018-06-07T05:41:56.656Z,101414.73
2018-06-07T05:44:28.797Z,101413.70
2018-06-07T05:46:58.345Z,101415.93
2018-06-07T05:49:27.448Z,101414.14
2018-06-07T05:51:56.600Z,101417.91
2018-06-07T05:54:25.202Z,101415.92
2018-06-07T05:56:53.764Z,101420.63
2018-06-07T05:59:22.277Z,101416.42
2018-06-07T06:01:51.017Z,101418.00
2018-06-07T06:04:19.870Z,101418.20
2018-06-07T06:06:48.647Z,101419.20
2018-06-07T06:09:17.099Z,101415.98
2018-06-07T06:11:46.295Z,101420.53
2018-06-07T06:14:15.000Z,101420.54
2018-06-07T06:16:43.567Z,101427.72
2018-06-07T06:19:12.415Z,101432.14
2018-06-07T06:21:41.272Z,101415.94
2018-06-07T06:24:10.836Z,101430.29
2018-06-07T06:26:39.980Z,101420.29
2018-06-07T06:29:08.552Z,101418.90
2018-06-07T06:31:40.115Z,101412.19
2018-06-07T06:34:08.812Z,101409.73
2018-06-07T06:36:37.816Z,101413.23
2018-06-07T06:39:08.136Z,101425.15
2018-06-07T06:41:37.781Z,101422.64
2018-06-07T06:44:06.260Z,101425.82
2018-06-07T06:46:34.885Z,101429.63
2018-06-07T06:49:04.860Z,101427.78
2018-06-07T06:51:33.461Z,101417.44
2018-06-07T06:54:04.730Z,101417.88
2018-06-07T06:56:33.590Z,101426.87
2018-06-07T06:59:03.908Z,101432.16
2018-06-07T07:01:35.539Z,101424.41
2018-06-07T07:04:07.798Z,101430.16
2018-06-07T07:06:37.929Z,101424.84
2018-06-07T07:09:08.450Z,101433.46
2018-06-07T07:11:37.083Z,101425.59
2018-06-07T07:14:06.027Z,101428.77
2018-06-07T07:16:34.939Z,101431.91
2018-06-07T07:19:03.599Z,101430.00
2018-06-07T07:21:32.119Z,101421.08
2018-06-07T07:24:00.781Z,101429.64
2018-06-07T07:26:29.296Z,101425.05
2018-06-07T07:28:58.495Z,101425.03
2018-06-07T07:31:27.105Z,101424.70
2018-06-07T07:33:55.683Z,101427.17
2018-06-07T07:36:24.747Z,101423.92
2018-06-07T07:38:53.199Z,101423.61
2018-06-07T07:41:21.694Z,101420.05
2018-06-07T07:43:50.223Z,101426.52
2018-06-07T07:46:18.768Z,101422.55
2018-06-07T07:48:47.375Z,101431.41
2018-06-07T07:51:15.878Z,101429.69
2018-06-07T07:53:44.350Z,101430.72
2018-06-07T07:56:12.882Z,101427.80
2018-06-07T07:58:41.333Z,101423.74
2018-06-07T08:01:10.048Z,101421.03
2018-06-07T08:03:38.495Z,101414.41
2018-06-07T08:06:07.219Z,101414.76
2018-06-07T08:08:35.865Z,101411.94
2018-06-07T08:11:04.593Z,101419.87
2018-06-07T08:13:33.099Z,101413.47
2018-06-07T08:16:01.793Z,101415.20
2018-06-07T08:18:30.396Z,101411.20
2018-06-07T08:20:58.969Z,101407.93
2018-06-07T08:23:27.581Z,101413.70
2018-06-07T08:25:56.101Z,101411.53
2018-06-07T08:28:24.737Z,101406.97
2018-06-07T08:30:53.388Z,101411.05
2018-06-07T08:33:21.917Z,101413.29
2018-06-07T08:35:50.436Z,101409.55
2018-06-07T08:38:18.938Z,101416.52
2018-06-07T08:40:47.451Z,101417.78
2018-06-07T08:43:15.956Z,101412.31
2018-06-07T08:45:44.471Z,101408.56
2018-06-07T08:48:12.998Z,101404.33
2018-06-07T08:50:41.640Z,101404.19
2018-06-07T08:53:10.098Z,101403.63
2018-06-07T08:55:38.626Z,101403.36
2018-06-07T08:58:07.126Z,101404.96
2018-06-07T09:00:35.707Z,101403.40
2018-06-07T09:03:04.264Z,101403.75
2018-06-07T09:05:32.800Z,101404.24
2018-06-07T09:08:01.311Z,101404.09
2018-06-07T09:10:29.782Z,101402.23
2018-06-07T09:12:58.406Z,101406.42
2018-06-07T09:15:26.883Z,101409.42
2018-06-07T09:17:55.391Z,101400.31
2018-06-07T09:20:24.095Z,101399.78
2018-06-07T09:22:52.736Z,101397.88
2018-06-07T09:25:21.222Z,101395.40
2018-06-07T09:27:49.802Z,101392.78
2018-06-07T09:30:18.303Z,101392.20
2018-06-07T09:32:46.770Z,101390.50
2018-06-07T09:35:15.274Z,101386.11
2018-06-07T09:37:43.816Z,101377.54
2018-06-07T09:40:13.688Z,101380.38
2018-06-07T09:42:42.452Z,101371.45
2018-06-07T09:45:10.951Z,101371.97
2018-06-07T09:47:39.636Z,101371.97
2018-06-07T09:50:08.327Z,101369.87
2018-06-07T09:52:37.176Z,101373.23
2018-06-07T09:55:05.711Z,101371.59
2018-06-07T09:57:34.367Z,101365.86
2018-06-07T10:00:02.831Z,101367.16
2018-06-07T10:02:31.760Z,101357.83
2018-06-07T10:05:00.295Z,101360.25
2018-06-07T10:07:28.839Z,101363.34
2018-06-07T10:09:57.364Z,101365.13
2018-06-07T10:12:26.084Z,101355.24
2018-06-07T10:14:54.734Z,101354.80
2018-06-07T10:17:23.398Z,101354.76
2018-06-07T10:19:52.193Z,101354.14
2018-06-07T10:22:20.771Z,101353.94
2018-06-07T10:24:49.443Z,101357.51
2018-06-07T10:27:18.267Z,101354.16
2018-06-07T10:29:46.872Z,101352.52
2018-06-07T10:32:15.583Z,101351.94
2018-06-07T10:34:44.256Z,101351.03
2018-06-07T10:37:12.946Z,101347.80
2018-06-07T10:39:41.857Z,101343.48
2018-06-07T10:42:10.350Z,101339.54
2018-06-07T10:44:38.838Z,101340.75
2018-06-07T10:47:07.696Z,101335.58
2018-06-07T10:49:36.323Z,101339.59
2018-06-07T10:52:05.016Z,101338.73
2018-06-07T10:54:33.510Z,101338.60
2018-06-07T10:57:02.046Z,101336.83
2018-06-07T10:59:30.623Z,101331.38
2018-06-07T11:01:59.257Z,101331.02
2018-06-07T11:04:27.940Z,101329.98
2018-06-07T11:06:56.570Z,101326.36
2018-06-07T11:09:25.512Z,101329.36
2018-06-07T11:12:00.651Z,101324.06
2018-06-07T11:14:29.112Z,101326.78
2018-06-07T11:16:57.858Z,101320.69
2018-06-07T11:19:26.511Z,101318.45
2018-06-07T11:21:55.028Z,101310.27
2018-06-07T11:24:23.689Z,101310.37
2018-06-07T11:26:52.197Z,101319.47
2018-06-07T11:29:20.680Z,101305.22
2018-06-07T11:31:49.302Z,101310.94
2018-06-07T11:34:17.835Z,101312.39
2018-06-07T11:36:46.396Z,101309.28
2018-06-07T11:39:14.887Z,101303.81
2018-06-07T11:41:43.407Z,101302.03
2018-06-07T11:44:11.867Z,101295.81
2018-06-07T11:46:40.356Z,101298.92
2018-06-07T11:49:08.837Z,101290.88
2018-06-07T11:51:37.349Z,101291.04
2018-06-07T11:54:06.151Z,101286.05
2018-06-07T11:56:34.783Z,101286.23
2018-06-07T11:59:03.295Z,101283.92
2018-06-07T12:01:31.975Z,101287.19
2018-06-07T12:04:00.547Z,101289.70
2018-06-07T12:06:29.049Z,101285.97
2018-06-07T12:08:57.546Z,101283.34
2018-06-07T12:11:26.404Z,101276.73
2018-06-07T12:13:55.017Z,101274.81
2018-06-07T12:16:23.532Z,101271.59
2018-06-07T12:18:52.407Z,101264.73
2018-06-07T12:21:20.907Z,101263.98
2018-06-07T12:23:49.385Z,101258.84
2018-06-07T12:26:17.903Z,101246.50
2018-06-07T12:28:46.461Z,101251.75
2018-06-07T12:31:15.124Z,101255.66
2018-06-07T12:33:43.835Z,101252.88
2018-06-07T12:36:12.547Z,101245.83
2018-06-07T12:38:41.196Z,101238.95
2018-06-07T12:41:09.705Z,101245.60
2018-06-07T12:43:38.259Z,101243.61
2018-06-07T12:46:06.793Z,101247.05
2018-06-07T12:48:35.542Z,101246.41
2018-06-07T12:51:04.060Z,101239.03
2018-06-07T12:53:32.511Z,101237.20
2018-06-07T12:56:01.036Z,101231.05
2018-06-07T12:58:29.796Z,101232.92
2018-06-07T13:00:58.274Z,101240.37
2018-06-07T13:03:27.016Z,101241.19
2018-06-07T13:05:55.839Z,101237.22
2018-06-07T13:08:24.287Z,101237.53
2018-06-07T13:10:52.788Z,101228.48
2018-06-07T13:13:21.258Z,101242.59
2018-06-07T13:15:49.806Z,101232.45
2018-06-07T13:18:18.262Z,101238.00
2018-06-07T13:20:46.747Z,101239.91
2018-06-07T13:23:15.259Z,101229.44
2018-06-07T13:25:44.115Z,101217.55
2018-06-07T13:28:12.895Z,101223.15
2018-06-07T13:30:41.399Z,101214.19
2018-06-07T13:33:09.880Z,101216.94
2018-06-07T13:35:38.549Z,101205.92
2018-06-07T13:38:07.055Z,101208.38
2018-06-07T13:40:35.571Z,101204.90
2018-06-07T13:43:04.447Z,101206.63
2018-06-07T13:45:32.951Z,101201.42
2018-06-07T13:48:01.453Z,101202.62
2018-06-07T13:50:29.962Z,101199.63
2018-06-07T13:52:58.470Z,101196.50
2018-06-07T13:55:26.972Z,101195.02
2018-06-07T13:57:55.513Z,101190.17
2018-06-07T14:00:24.012Z,101186.14
2018-06-07T14:02:52.514Z,101187.62
2018-06-07T14:05:22.026Z,101191.19
2018-06-07T14:07:50.743Z,101182.25
2018-06-07T14:10:19.232Z,101179.23
2018-06-07T14:12:47.688Z,101180.39
2018-06-07T14:15:16.188Z,101175.71
2018-06-07T14:17:44.932Z,101179.14
2018-06-07T14:20:14.651Z,101183.34
2018-06-07T14:22:43.365Z,101179.33
2018-06-07T14:25:11.851Z,101183.34
2018-06-07T14:27:40.495Z,101171.43
2018-06-07T14:30:08.983Z,101173.47
2018-06-07T14:32:37.644Z,101162.20
2018-06-07T14:35:06.529Z,101170.08
2018-06-07T14:37:35.023Z,101151.83
2018-06-07T14:40:03.702Z,101145.72
2018-06-07T14:42:32.600Z,101144.86
2018-06-07T14:45:01.074Z,101136.12
2018-06-07T14:47:29.836Z,101141.95
2018-06-07T14:49:58.311Z,101135.14
2018-06-07T14:52:26.848Z,101139.50
2018-06-07T14:54:55.369Z,101134.12
2018-06-07T14:57:23.900Z,101129.38
2018-06-07T14:59:52.524Z,101126.95
2018-06-07T15:02:21.143Z,101123.95
2018-06-07T15:04:49.611Z,101117.23
2018-06-07T15:07:18.145Z,101117.81
2018-06-07T15:09:46.654Z,101113.00
2018-06-07T15:12:15.679Z,101109.13
2018-06-07T15:14:44.305Z,101109.88
2018-06-07T15:17:13.075Z,101111.53
2018-06-07T15:19:41.716Z,101107.45
2018-06-07T15:22:10.234Z,101101.20
2018-06-07T15:24:38.843Z,101103.78
2018-06-07T15:27:07.429Z,101111.44
2018-06-07T15:29:36.279Z,101108.84
2018-06-07T15:32:05.426Z,101101.98
2018-06-07T15:34:34.201Z,101102.83
2018-06-07T15:37:02.716Z,101101.48
2018-06-07T15:39:31.365Z,101100.69
2018-06-07T15:42:00.083Z,101104.94
2018-06-07T15:44:28.747Z,101098.58
2018-06-07T15:46:57.253Z,101083.22
2018-06-07T15:49:25.777Z,101081.07
2018-06-07T15:51:54.259Z,101081.50
2018-06-07T15:54:22.789Z,101077.72
2018-06-07T15:56:51.372Z,101084.56
2018-06-07T15:59:19.973Z,101091.92
2018-06-07T16:01:48.498Z,101090.56
2018-06-07T16:04:16.974Z,101086.56
2018-06-07T16:06:45.502Z,101092.70
2018-06-07T16:09:13.994Z,101085.55
2018-06-07T16:11:42.511Z,101079.42
2018-06-07T16:14:11.090Z,101080.30
2018-06-07T16:16:39.636Z,101074.75
2018-06-07T16:19:08.538Z,101077.30
2018-06-07T16:21:37.220Z,101071.73
2018-06-07T16:24:05.951Z,101069.30
2018-06-07T16:26:34.592Z,101070.10
2018-06-07T16:29:03.119Z,101075.62
2018-06-07T16:31:31.768Z,101080.50
2018-06-07T16:34:00.479Z,101072.83
2018-06-07T16:36:29.131Z,101070.92
2018-06-07T16:38:58.025Z,101074.92
2018-06-07T16:41:26.552Z,101074.45
2018-06-07T16:43:55.061Z,101080.13
2018-06-07T16:46:23.655Z,101086.02
2018-06-07T16:48:52.241Z,101080.97
2018-06-07T16:51:20.823Z,101082.98
2018-06-07T16:53:49.298Z,101080.83
2018-06-07T16:56:24.500Z,101084.63
2018-06-07T16:58:53.192Z,101076.97
2018-06-07T17:01:21.694Z,101080.79
2018-06-07T17:03:50.202Z,101077.37
2018-06-07T17:06:18.697Z,101074.96
2018-06-07T17:08:47.142Z,101078.15
2018-06-07T17:11:16.107Z,101079.16
2018-06-07T17:13:45.195Z,101071.88
2018-06-07T17:16:13.739Z,101075.25
2018-06-07T17:18:42.240Z,101069.62
2018-06-07T17:21:10.787Z,101065.16
2018-06-07T17:23:39.268Z,101061.31
2018-06-07T17:26:07.838Z,101061.53
2018-06-07T17:28:36.465Z,101062.69
2018-06-07T17:31:05.187Z,101055.64
2018-06-07T17:33:33.812Z,101063.46
2018-06-07T17:36:02.360Z,101063.87
2018-06-07T17:38:30.902Z,101058.47
2018-06-07T17:40:59.546Z,101059.88
2018-06-07T17:43:28.036Z,101067.64
2018-06-07T17:45:56.630Z,101064.14
2018-06-07T17:48:25.323Z,101068.26
2018-06-07T17:50:53.864Z,101072.48
2018-06-07T17:53:22.450Z,101066.83
2018-06-07T17:55:52.184Z,101067.97
2018-06-07T17:58:20.935Z,101069.75
2018-06-07T18:00:49.563Z,101066.63
2018-06-07T18:03:18.045Z,101071.83
2018-06-07T18:05:47.345Z,101073.75
2018-06-07T18:08:16.220Z,101058.66
2018-06-07T18:10:44.728Z,101076.50
2018-06-07T18:13:13.565Z,101066.69
2018-06-07T18:15:42.241Z,101070.12
2018-06-07T18:18:10.843Z,101076.08
2018-06-07T18:20:39.529Z,101076.19
2018-06-07T18:23:07.986Z,101073.66
2018-06-07T18:25:36.641Z,101065.89
2018-06-07T18:28:05.170Z,101070.65
2018-06-07T18:30:33.844Z,101076.15
2018-06-07T18:33:02.364Z,101066.70
2018-06-07T18:35:30.909Z,101069.16
2018-06-07T18:37:59.432Z,101070.52
2018-06-07T18:40:27.961Z,101063.63
2018-06-07T18:42:56.491Z,101072.05
2018-06-07T18:45:25.128Z,101068.70
2018-06-07T18:47:53.759Z,101067.34
2018-06-07T18:50:22.678Z,101066.00
2018-06-07T18:52:51.160Z,101064.05
2018-06-07T18:55:19.687Z,101069.48
2018-06-07T18:57:48.192Z,101061.91
2018-06-07T19:00:16.739Z,101063.26
2018-06-07T19:02:45.666Z,101066.86
2018-06-07T19:05:14.296Z,101067.08
2018-06-07T19:07:42.776Z,101074.83
2018-06-07T19:10:13.091Z,101078.02
2018-06-07T19:12:41.637Z,101072.77
2018-06-07T19:15:12.519Z,101076.02
2018-06-07T19:17:41.259Z,101078.59
2018-06-07T19:20:15.086Z,101077.93
2018-06-07T19:22:43.567Z,101084.93
2018-06-07T19:25:17.438Z,101088.30
2018-06-07T19:27:46.231Z,101100.81
2018-06-07T19:30:15.214Z,101097.65
2018-06-07T19:33:51.364Z,101101.50
2018-06-07T19:36:19.907Z,101100.91
2018-06-07T19:38:53.767Z,101096.51
2018-06-07T19:41:27.582Z,101100.84
2018-06-07T19:43:56.052Z,101099.68
2018-06-07T19:46:24.718Z,101107.41
2018-06-07T19:48:53.390Z,101109.10
2018-06-07T19:51:21.991Z,101114.41
2018-06-07T19:53:50.776Z,101113.07
2018-06-07T19:56:19.299Z,101108.64
2018-06-07T19:58:47.898Z,101115.80
2018-06-07T20:01:16.794Z,101121.68
2018-06-07T20:03:45.314Z,101125.44
2018-06-07T20:06:13.964Z,101121.59
2018-06-07T20:08:42.874Z,101128.84
2018-06-07T20:11:11.349Z,101129.75
2018-06-07T20:13:39.867Z,101129.33
2018-06-07T20:16:08.730Z,101128.48
2018-06-07T20:18:37.263Z,101137.74
2018-06-07T20:21:06.128Z,101135.66
2018-06-07T20:23:34.735Z,101133.09
2018-06-07T20:26:03.660Z,101133.59
2018-06-07T20:28:35.159Z,101135.03
2018-06-07T20:31:05.885Z,101131.35
2018-06-07T20:33:35.011Z,101138.60
2018-06-07T20:36:03.539Z,101129.38
2018-06-07T20:38:32.231Z,101139.11
2018-06-07T20:41:02.074Z,101134.76
2018-06-07T20:43:33.202Z,101135.72
2018-06-07T20:46:01.736Z,101139.21
2018-06-07T20:48:35.539Z,101136.02
2018-06-07T20:51:04.682Z,101135.89
2018-06-07T20:53:35.014Z,101135.81
2018-06-07T20:56:05.858Z,101132.61
2018-06-07T20:58:34.938Z,101135.02
2018-06-07T21:01:03.443Z,101131.45
2018-06-07T21:03:32.346Z,101124.67
2018-06-07T21:06:00.853Z,101129.35
2018-06-07T21:08:32.079Z,101137.41
2018-06-07T21:11:00.703Z,101136.84
2018-06-07T21:13:29.224Z,101132.33
2018-06-07T21:15:57.941Z,101130.49
2018-06-07T21:18:26.496Z,101125.73
2018-06-07T21:20:55.273Z,101122.50
2018-06-07T21:23:24.079Z,101119.82
2018-06-07T21:25:52.840Z,101120.55
2018-06-07T21:28:21.693Z,101111.48
2018-06-07T21:30:50.443Z,101115.44
2018-06-07T21:33:19.046Z,101111.73
2018-06-07T21:35:47.682Z,101111.17
2018-06-07T21:38:16.454Z,101110.72
2018-06-07T21:43:44.179Z,101114.09
2018-06-07T21:46:13.220Z,101115.28
2018-06-07T21:48:42.187Z,101116.69
2018-06-07T21:51:11.068Z,101112.51
2018-06-07T21:53:39.851Z,101111.22
2018-06-07T21:56:08.969Z,101106.23
2018-06-07T21:58:38.896Z,101108.23
2018-06-07T22:01:08.583Z,101105.90
2018-06-07T22:03:38.278Z,101101.04
2018-06-07T22:06:07.547Z,101106.14
2018-06-07T22:08:36.915Z,101104.89
2018-06-07T22:11:05.782Z,101100.12
2018-06-07T22:13:35.891Z,101104.55
2018-06-07T22:16:05.280Z,101100.47
2018-06-07T22:18:35.081Z,101107.34
2018-06-07T22:21:04.235Z,101097.69
2018-06-07T22:23:33.019Z,101104.17
2018-06-07T22:26:02.182Z,101106.72
2018-06-07T22:28:31.114Z,101102.57
2018-06-07T22:30:59.879Z,101100.46
2018-06-07T22:33:28.640Z,101095.70
2018-06-07T22:35:58.094Z,101109.61
2018-06-07T22:38:26.834Z,101105.30
2018-06-07T22:40:55.671Z,101102.17
2018-06-07T22:43:24.298Z,101104.03
2018-06-07T22:45:52.914Z,101100.67
2018-06-07T22:48:22.187Z,101097.41
2018-06-07T22:50:51.026Z,101094.61
2018-06-07T22:53:19.666Z,101091.47
2018-06-07T22:55:48.323Z,101096.23
2018-06-07T22:58:17.351Z,101084.72
2018-06-07T23:00:45.994Z,101089.11
2018-06-07T23:03:15.076Z,101086.27
2018-06-07T23:05:43.842Z,101083.36
2018-06-07T23:08:12.406Z,101086.27
2018-06-07T23:10:41.157Z,101086.02
2018-06-07T23:13:09.721Z,101085.11
2018-06-07T23:15:38.580Z,101080.45
2018-06-07T23:18:07.327Z,101082.19
2018-06-07T23:20:35.984Z,101076.95
2018-06-07T23:23:04.602Z,101085.48
2018-06-07T23:25:33.214Z,101078.23
2018-06-07T23:28:03.018Z,101074.36
2018-06-07T23:30:31.849Z,101078.36
2018-06-07T23:33:00.584Z,101071.94
2018-06-07T23:35:29.212Z,101069.78
2018-06-07T23:37:58.157Z,101068.51
2018-06-07T23:40:26.824Z,101067.09
2018-06-07T23:42:55.533Z,101068.27
2018-06-07T23:45:24.192Z,101069.48
2018-06-07T23:47:52.779Z,101067.29
2018-06-07T23:50:21.496Z,101060.72
2018-06-07T23:52:50.286Z,101068.92
2018-06-07T23:55:19.122Z,101060.42
2018-06-07T23:57:48.068Z,101063.94
